sensor_id;sensor_type;location;lat;lon;timestamp;P1;durP1;ratioP1;P2;durP2;ratioP2
3718;SDS011;1875;52.492;6.860;2023-03-12T00:01:18;13.23;;;8.83;;
3718;SDS011;1875;52.492;6.860;2023-03-12T00:03:47;14.73;;;9.03;;
3718;SDS011;1875;52.492;6.860;2023-03-12T00:06:15;14.17;;;8.70;;
3718;SDS011;1875;52.492;6.860;2023-03-12T00:08:43;17.07;;;8.83;;
3718;SDS011;1875;52.492;6.860;2023-03-12T00:11:13;10.00;;;6.67;;
3718;SDS011;1875;52.492;6.860;2023-03-12T00:13:42;13.93;;;6.73;;
3718;SDS011;1875;52.492;6.860;2023-03-12T00:16:11;15.27;;;7.93;;
3718;SDS011;1875;52.492;6.860;2023-03-12T00:18:40;10.27;;;6.90;;
3718;SDS011;1875;52.492;6.860;2023-03-12T00:21:08;12.23;;;6.60;;
3718;SDS011;1875;52.492;6.860;2023-03-12T00:23:36;15.27;;;6.50;;
3718;SDS011;1875;52.492;6.860;2023-03-12T00:26:05;10.40;;;6.73;;
3718;SDS011;1875;52.492;6.860;2023-03-12T00:28:35;11.97;;;6.73;;
3718;SDS011;1875;52.492;6.860;2023-03-12T00:31:11;10.00;;;6.27;;
3718;SDS011;1875;52.492;6.860;2023-03-12T00:33:40;11.83;;;6.20;;
3718;SDS011;1875;52.492;6.860;2023-03-12T00:36:08;12.73;;;6.63;;
3718;SDS011;1875;52.492;6.860;2023-03-12T00:38:35;11.53;;;6.37;;
3718;SDS011;1875;52.492;6.860;2023-03-12T00:41:03;11.87;;;7.30;;
3718;SDS011;1875;52.492;6.860;2023-03-12T00:43:31;16.93;;;7.80;;
3718;SDS011;1875;52.492;6.860;2023-03-12T00:46:00;14.17;;;7.87;;
3718;SDS011;1875;52.492;6.860;2023-03-12T00:48:28;13.33;;;7.83;;
3718;SDS011;1875;52.492;6.860;2023-03-12T00:50:55;19.90;;;7.70;;
3718;SDS011;1875;52.492;6.860;2023-03-12T00:53:23;12.80;;;7.27;;
3718;SDS011;1875;52.492;6.860;2023-03-12T00:55:51;15.70;;;9.40;;
3718;SDS011;1875;52.492;6.860;2023-03-12T00:58:18;14.63;;;8.27;;
3718;SDS011;1875;52.492;6.860;2023-03-12T01:00:46;16.33;;;8.00;;
3718;SDS011;1875;52.492;6.860;2023-03-12T01:03:15;14.13;;;8.77;;
3718;SDS011;1875;52.492;6.860;2023-03-12T01:05:43;16.93;;;8.60;;
3718;SDS011;1875;52.492;6.860;2023-03-12T01:08:11;15.77;;;8.37;;
3718;SDS011;1875;52.492;6.860;2023-03-12T01:10:40;14.80;;;7.10;;
3718;SDS011;1875;52.492;6.860;2023-03-12T01:13:08;14.40;;;7.27;;
3718;SDS011;1875;52.492;6.860;2023-03-12T01:15:36;13.07;;;8.40;;
3718;SDS011;1875;52.492;6.860;2023-03-12T01:18:04;12.70;;;8.07;;
3718;SDS011;1875;52.492;6.860;2023-03-12T01:20:33;14.90;;;7.23;;
3718;SDS011;1875;52.492;6.860;2023-03-12T01:23:01;14.93;;;7.03;;
3718;SDS011;1875;52.492;6.860;2023-03-12T01:25:29;20.13;;;8.27;;
3718;SDS011;1875;52.492;6.860;2023-03-12T01:27:59;12.13;;;6.03;;
3718;SDS011;1875;52.492;6.860;2023-03-12T01:30:27;16.80;;;6.30;;
3718;SDS011;1875;52.492;6.860;2023-03-12T01:32:55;12.37;;;6.43;;
3718;SDS011;1875;52.492;6.860;2023-03-12T01:35:22;12.83;;;6.10;;
3718;SDS011;1875;52.492;6.860;2023-03-12T01:37:52;9.30;;;5.73;;
3718;SDS011;1875;52.492;6.860;2023-03-12T01:40:22;12.40;;;6.60;;
3718;SDS011;1875;52.492;6.860;2023-03-12T01:42:54;11.07;;;5.83;;
3718;SDS011;1875;52.492;6.860;2023-03-12T01:48:35;12.97;;;7.40;;
3718;SDS011;1875;52.492;6.860;2023-03-12T01:51:05;12.87;;;7.23;;
3718;SDS011;1875;52.492;6.860;2023-03-12T01:53:35;13.03;;;7.03;;
3718;SDS011;1875;52.492;6.860;2023-03-12T01:56:04;15.67;;;8.00;;
3718;SDS011;1875;52.492;6.860;2023-03-12T01:58:33;13.40;;;7.67;;
3718;SDS011;1875;52.492;6.860;2023-03-12T02:01:03;12.77;;;7.47;;
3718;SDS011;1875;52.492;6.860;2023-03-12T02:03:31;15.10;;;6.47;;
3718;SDS011;1875;52.492;6.860;2023-03-12T02:06:00;9.23;;;6.03;;
3718;SDS011;1875;52.492;6.860;2023-03-12T02:08:33;11.47;;;6.43;;
3718;SDS011;1875;52.492;6.860;2023-03-12T02:11:03;15.57;;;5.87;;
3718;SDS011;1875;52.492;6.860;2023-03-12T02:13:31;11.23;;;5.20;;
3718;SDS011;1875;52.492;6.860;2023-03-12T02:15:59;11.03;;;6.10;;
3718;SDS011;1875;52.492;6.860;2023-03-12T02:18:27;10.67;;;5.30;;
3718;SDS011;1875;52.492;6.860;2023-03-12T02:20:55;8.17;;;5.27;;
3718;SDS011;1875;52.492;6.860;2023-03-12T02:23:29;12.67;;;5.70;;
3718;SDS011;1875;52.492;6.860;2023-03-12T02:25:59;8.47;;;4.83;;
3718;SDS011;1875;52.492;6.860;2023-03-12T02:28:28;15.80;;;5.17;;
3718;SDS011;1875;52.492;6.860;2023-03-12T02:30:56;9.50;;;4.53;;
3718;SDS011;1875;52.492;6.860;2023-03-12T02:33:26;7.97;;;4.90;;
3718;SDS011;1875;52.492;6.860;2023-03-12T02:35:54;8.37;;;5.07;;
3718;SDS011;1875;52.492;6.860;2023-03-12T02:38:31;10.83;;;5.23;;
3718;SDS011;1875;52.492;6.860;2023-03-12T02:41:09;18.73;;;5.63;;
3718;SDS011;1875;52.492;6.860;2023-03-12T02:43:38;9.83;;;4.77;;
3718;SDS011;1875;52.492;6.860;2023-03-12T02:46:07;11.40;;;4.90;;
3718;SDS011;1875;52.492;6.860;2023-03-12T02:48:35;9.83;;;4.70;;
3718;SDS011;1875;52.492;6.860;2023-03-12T02:51:03;11.17;;;4.87;;
3718;SDS011;1875;52.492;6.860;2023-03-12T02:53:31;8.80;;;5.20;;
3718;SDS011;1875;52.492;6.860;2023-03-12T02:55:59;13.03;;;4.57;;
3718;SDS011;1875;52.492;6.860;2023-03-12T02:58:28;11.13;;;4.13;;
3718;SDS011;1875;52.492;6.860;2023-03-12T03:00:56;9.97;;;4.23;;
3718;SDS011;1875;52.492;6.860;2023-03-12T03:03:23;10.87;;;4.37;;
3718;SDS011;1875;52.492;6.860;2023-03-12T03:05:51;8.10;;;4.50;;
3718;SDS011;1875;52.492;6.860;2023-03-12T03:08:19;10.00;;;4.77;;
3718;SDS011;1875;52.492;6.860;2023-03-12T03:10:46;10.73;;;4.70;;
3718;SDS011;1875;52.492;6.860;2023-03-12T03:13:17;7.83;;;4.30;;
3718;SDS011;1875;52.492;6.860;2023-03-12T03:15:46;11.67;;;4.57;;
3718;SDS011;1875;52.492;6.860;2023-03-12T03:18:13;6.87;;;4.27;;
3718;SDS011;1875;52.492;6.860;2023-03-12T03:20:41;11.40;;;4.73;;
3718;SDS011;1875;52.492;6.860;2023-03-12T03:23:10;16.10;;;4.90;;
3718;SDS011;1875;52.492;6.860;2023-03-12T03:25:37;11.87;;;4.43;;
3718;SDS011;1875;52.492;6.860;2023-03-12T03:28:05;14.47;;;4.70;;
3718;SDS011;1875;52.492;6.860;2023-03-12T03:30:33;7.33;;;4.33;;
3718;SDS011;1875;52.492;6.860;2023-03-12T03:33:02;10.60;;;4.67;;
3718;SDS011;1875;52.492;6.860;2023-03-12T03:35:30;11.80;;;5.67;;
3718;SDS011;1875;52.492;6.860;2023-03-12T03:37:57;7.43;;;4.57;;
3718;SDS011;1875;52.492;6.860;2023-03-12T03:40:25;12.97;;;5.50;;
3718;SDS011;1875;52.492;6.860;2023-03-12T03:42:53;9.27;;;5.40;;
3718;SDS011;1875;52.492;6.860;2023-03-12T03:45:20;12.93;;;5.20;;
3718;SDS011;1875;52.492;6.860;2023-03-12T03:47:48;10.87;;;5.13;;
3718;SDS011;1875;52.492;6.860;2023-03-12T03:50:18;9.63;;;4.90;;
3718;SDS011;1875;52.492;6.860;2023-03-12T03:52:46;12.47;;;4.77;;
3718;SDS011;1875;52.492;6.860;2023-03-12T03:55:13;10.90;;;5.17;;
3718;SDS011;1875;52.492;6.860;2023-03-12T03:57:41;15.07;;;5.70;;
3718;SDS011;1875;52.492;6.860;2023-03-12T04:00:09;12.93;;;5.80;;
3718;SDS011;1875;52.492;6.860;2023-03-12T04:02:38;7.57;;;4.83;;
3718;SDS011;1875;52.492;6.860;2023-03-12T04:05:06;10.27;;;5.07;;
3718;SDS011;1875;52.492;6.860;2023-03-12T04:07:36;7.73;;;5.20;;
3718;SDS011;1875;52.492;6.860;2023-03-12T04:10:04;15.57;;;5.53;;
3718;SDS011;1875;52.492;6.860;2023-03-12T04:12:32;15.03;;;6.17;;
3718;SDS011;1875;52.492;6.860;2023-03-12T04:15:00;12.80;;;5.70;;
3718;SDS011;1875;52.492;6.860;2023-03-12T04:17:28;10.60;;;5.80;;
3718;SDS011;1875;52.492;6.860;2023-03-12T04:19:56;12.17;;;5.93;;
3718;SDS011;1875;52.492;6.860;2023-03-12T04:22:23;11.27;;;4.97;;
3718;SDS011;1875;52.492;6.860;2023-03-12T04:24:53;10.43;;;4.83;;
3718;SDS011;1875;52.492;6.860;2023-03-12T04:27:20;14.67;;;5.37;;
3718;SDS011;1875;52.492;6.860;2023-03-12T04:29:48;8.23;;;4.90;;
3718;SDS011;1875;52.492;6.860;2023-03-12T04:32:16;11.27;;;4.60;;
3718;SDS011;1875;52.492;6.860;2023-03-12T04:34:43;11.40;;;4.40;;
3718;SDS011;1875;52.492;6.860;2023-03-12T04:37:11;8.30;;;4.17;;
3718;SDS011;1875;52.492;6.860;2023-03-12T04:39:40;13.20;;;5.03;;
3718;SDS011;1875;52.492;6.860;2023-03-12T04:42:09;8.70;;;4.60;;
3718;SDS011;1875;52.492;6.860;2023-03-12T04:44:37;9.60;;;5.23;;
3718;SDS011;1875;52.492;6.860;2023-03-12T04:47:06;10.63;;;4.90;;
3718;SDS011;1875;52.492;6.860;2023-03-12T04:49:33;9.33;;;4.77;;
3718;SDS011;1875;52.492;6.860;2023-03-12T04:52:02;23.00;;;7.53;;
3718;SDS011;1875;52.492;6.860;2023-03-12T04:54:29;11.97;;;6.17;;
3718;SDS011;1875;52.492;6.860;2023-03-12T04:56:58;14.20;;;6.27;;
3718;SDS011;1875;52.492;6.860;2023-03-12T04:59:27;13.73;;;6.40;;
3718;SDS011;1875;52.492;6.860;2023-03-12T05:01:55;11.00;;;5.70;;
3718;SDS011;1875;52.492;6.860;2023-03-12T05:04:22;13.40;;;6.67;;
3718;SDS011;1875;52.492;6.860;2023-03-12T05:06:50;11.37;;;6.20;;
3718;SDS011;1875;52.492;6.860;2023-03-12T05:09:18;12.67;;;6.73;;
3718;SDS011;1875;52.492;6.860;2023-03-12T05:11:45;9.03;;;5.77;;
3718;SDS011;1875;52.492;6.860;2023-03-12T05:14:13;10.83;;;6.17;;
3718;SDS011;1875;52.492;6.860;2023-03-12T05:16:42;11.80;;;7.10;;
3718;SDS011;1875;52.492;6.860;2023-03-12T05:19:10;10.53;;;6.50;;
3718;SDS011;1875;52.492;6.860;2023-03-12T05:21:38;14.00;;;5.60;;
3718;SDS011;1875;52.492;6.860;2023-03-12T05:24:06;13.87;;;5.80;;
3718;SDS011;1875;52.492;6.860;2023-03-12T05:26:35;9.93;;;5.80;;
3718;SDS011;1875;52.492;6.860;2023-03-12T05:29:03;12.90;;;6.40;;
3718;SDS011;1875;52.492;6.860;2023-03-12T05:31:31;12.00;;;6.20;;
3718;SDS011;1875;52.492;6.860;2023-03-12T05:34:02;11.63;;;5.50;;
3718;SDS011;1875;52.492;6.860;2023-03-12T05:36:30;11.37;;;6.50;;
3718;SDS011;1875;52.492;6.860;2023-03-12T05:38:58;12.50;;;6.00;;
3718;SDS011;1875;52.492;6.860;2023-03-12T05:41:26;12.27;;;6.10;;
3718;SDS011;1875;52.492;6.860;2023-03-12T05:43:55;10.50;;;5.90;;
3718;SDS011;1875;52.492;6.860;2023-03-12T05:46:23;12.93;;;7.53;;
3718;SDS011;1875;52.492;6.860;2023-03-12T05:48:52;9.47;;;5.80;;
3718;SDS011;1875;52.492;6.860;2023-03-12T05:51:21;18.23;;;6.23;;
3718;SDS011;1875;52.492;6.860;2023-03-12T05:53:49;8.30;;;5.03;;
3718;SDS011;1875;52.492;6.860;2023-03-12T05:56:16;10.53;;;5.70;;
3718;SDS011;1875;52.492;6.860;2023-03-12T05:58:46;10.83;;;5.77;;
3718;SDS011;1875;52.492;6.860;2023-03-12T06:01:15;11.87;;;6.40;;
3718;SDS011;1875;52.492;6.860;2023-03-12T06:03:45;8.57;;;5.60;;
3718;SDS011;1875;52.492;6.860;2023-03-12T06:06:13;9.63;;;5.80;;
3718;SDS011;1875;52.492;6.860;2023-03-12T06:08:42;13.23;;;5.93;;
3718;SDS011;1875;52.492;6.860;2023-03-12T06:11:10;9.00;;;5.97;;
3718;SDS011;1875;52.492;6.860;2023-03-12T06:13:38;11.50;;;6.03;;
3718;SDS011;1875;52.492;6.860;2023-03-12T06:16:07;7.40;;;5.03;;
3718;SDS011;1875;52.492;6.860;2023-03-12T06:18:36;8.07;;;5.13;;
3718;SDS011;1875;52.492;6.860;2023-03-12T06:21:08;14.00;;;5.27;;
3718;SDS011;1875;52.492;6.860;2023-03-12T06:23:37;9.73;;;5.53;;
3718;SDS011;1875;52.492;6.860;2023-03-12T06:26:07;12.60;;;5.83;;
3718;SDS011;1875;52.492;6.860;2023-03-12T06:28:34;15.17;;;5.83;;
3718;SDS011;1875;52.492;6.860;2023-03-12T06:31:03;7.43;;;5.43;;
3718;SDS011;1875;52.492;6.860;2023-03-12T06:33:31;11.60;;;5.37;;
3718;SDS011;1875;52.492;6.860;2023-03-12T06:35:59;8.47;;;4.60;;
3718;SDS011;1875;52.492;6.860;2023-03-12T06:38:29;9.90;;;5.23;;
3718;SDS011;1875;52.492;6.860;2023-03-12T06:40:57;8.50;;;5.33;;
3718;SDS011;1875;52.492;6.860;2023-03-12T06:43:28;12.57;;;5.53;;
3718;SDS011;1875;52.492;6.860;2023-03-12T06:45:57;10.43;;;5.17;;
3718;SDS011;1875;52.492;6.860;2023-03-12T06:48:26;12.27;;;5.10;;
3718;SDS011;1875;52.492;6.860;2023-03-12T06:50:54;11.43;;;6.23;;
3718;SDS011;1875;52.492;6.860;2023-03-12T06:53:22;7.93;;;4.97;;
3718;SDS011;1875;52.492;6.860;2023-03-12T06:55:51;9.53;;;4.77;;
3718;SDS011;1875;52.492;6.860;2023-03-12T06:58:18;8.10;;;4.77;;
3718;SDS011;1875;52.492;6.860;2023-03-12T07:00:47;9.17;;;4.27;;
3718;SDS011;1875;52.492;6.860;2023-03-12T07:03:15;9.37;;;4.23;;
3718;SDS011;1875;52.492;6.860;2023-03-12T07:05:43;9.77;;;6.00;;
3718;SDS011;1875;52.492;6.860;2023-03-12T07:08:11;15.40;;;5.93;;
3718;SDS011;1875;52.492;6.860;2023-03-12T07:10:40;8.97;;;4.23;;
3718;SDS011;1875;52.492;6.860;2023-03-12T07:13:07;9.93;;;4.43;;
3718;SDS011;1875;52.492;6.860;2023-03-12T07:15:35;9.40;;;4.50;;
3718;SDS011;1875;52.492;6.860;2023-03-12T07:18:05;7.50;;;4.33;;
3718;SDS011;1875;52.492;6.860;2023-03-12T07:20:35;15.43;;;4.67;;
3718;SDS011;1875;52.492;6.860;2023-03-12T07:23:03;10.53;;;4.17;;
3718;SDS011;1875;52.492;6.860;2023-03-12T07:25:33;11.33;;;5.00;;
3718;SDS011;1875;52.492;6.860;2023-03-12T07:28:01;9.33;;;4.53;;
3718;SDS011;1875;52.492;6.860;2023-03-12T07:30:29;9.77;;;4.27;;
3718;SDS011;1875;52.492;6.860;2023-03-12T07:32:59;9.07;;;4.10;;
3718;SDS011;1875;52.492;6.860;2023-03-12T07:35:28;11.90;;;5.27;;
3718;SDS011;1875;52.492;6.860;2023-03-12T07:37:56;6.33;;;4.13;;
3718;SDS011;1875;52.492;6.860;2023-03-12T07:40:24;10.40;;;4.13;;
3718;SDS011;1875;52.492;6.860;2023-03-12T07:42:52;11.57;;;4.40;;
3718;SDS011;1875;52.492;6.860;2023-03-12T07:45:20;12.87;;;4.77;;
3718;SDS011;1875;52.492;6.860;2023-03-12T07:47:48;9.60;;;5.20;;
3718;SDS011;1875;52.492;6.860;2023-03-12T07:50:17;7.60;;;4.23;;
3718;SDS011;1875;52.492;6.860;2023-03-12T07:52:46;9.63;;;4.13;;
3718;SDS011;1875;52.492;6.860;2023-03-12T07:55:14;9.80;;;4.17;;
3718;SDS011;1875;52.492;6.860;2023-03-12T07:57:42;12.63;;;5.30;;
3718;SDS011;1875;52.492;6.860;2023-03-12T08:00:11;11.50;;;5.20;;
3718;SDS011;1875;52.492;6.860;2023-03-12T08:02:40;8.53;;;5.00;;
3718;SDS011;1875;52.492;6.860;2023-03-12T08:05:08;12.57;;;5.33;;
3718;SDS011;1875;52.492;6.860;2023-03-12T08:07:36;11.40;;;5.90;;
3718;SDS011;1875;52.492;6.860;2023-03-12T08:10:06;7.80;;;5.50;;
3718;SDS011;1875;52.492;6.860;2023-03-12T08:12:35;14.50;;;5.73;;
3718;SDS011;1875;52.492;6.860;2023-03-12T08:15:03;10.80;;;6.90;;
3718;SDS011;1875;52.492;6.860;2023-03-12T08:17:31;11.00;;;5.73;;
3718;SDS011;1875;52.492;6.860;2023-03-12T08:19:59;10.80;;;5.20;;
3718;SDS011;1875;52.492;6.860;2023-03-12T08:22:27;15.00;;;5.53;;
3718;SDS011;1875;52.492;6.860;2023-03-12T08:24:55;8.50;;;4.77;;
3718;SDS011;1875;52.492;6.860;2023-03-12T08:27:24;9.77;;;5.70;;
3718;SDS011;1875;52.492;6.860;2023-03-12T08:29:51;9.07;;;6.37;;
3718;SDS011;1875;52.492;6.860;2023-03-12T08:32:19;12.03;;;6.13;;
3718;SDS011;1875;52.492;6.860;2023-03-12T08:34:47;13.17;;;6.23;;
3718;SDS011;1875;52.492;6.860;2023-03-12T08:37:15;15.20;;;6.50;;
3718;SDS011;1875;52.492;6.860;2023-03-12T08:39:43;15.00;;;7.33;;
3718;SDS011;1875;52.492;6.860;2023-03-12T08:42:10;16.23;;;6.40;;
3718;SDS011;1875;52.492;6.860;2023-03-12T08:44:39;15.37;;;6.90;;
3718;SDS011;1875;52.492;6.860;2023-03-12T08:47:07;11.07;;;6.33;;
3718;SDS011;1875;52.492;6.860;2023-03-12T08:49:35;12.50;;;5.83;;
3718;SDS011;1875;52.492;6.860;2023-03-12T08:52:03;14.77;;;6.60;;
3718;SDS011;1875;52.492;6.860;2023-03-12T08:54:31;12.30;;;6.50;;
3718;SDS011;1875;52.492;6.860;2023-03-12T08:56:58;16.60;;;6.73;;
3718;SDS011;1875;52.492;6.860;2023-03-12T08:59:26;10.33;;;6.47;;
3718;SDS011;1875;52.492;6.860;2023-03-12T09:01:55;12.93;;;6.37;;
3718;SDS011;1875;52.492;6.860;2023-03-12T09:04:23;12.87;;;6.83;;
3718;SDS011;1875;52.492;6.860;2023-03-12T09:06:51;12.63;;;7.50;;
3718;SDS011;1875;52.492;6.860;2023-03-12T09:09:18;13.87;;;6.33;;
3718;SDS011;1875;52.492;6.860;2023-03-12T09:11:46;12.77;;;6.07;;
3718;SDS011;1875;52.492;6.860;2023-03-12T09:14:14;11.00;;;6.47;;
3718;SDS011;1875;52.492;6.860;2023-03-12T09:17:03;10.53;;;6.60;;
3718;SDS011;1875;52.492;6.860;2023-03-12T09:19:31;10.70;;;6.53;;
3718;SDS011;1875;52.492;6.860;2023-03-12T09:21:58;15.63;;;7.20;;
3718;SDS011;1875;52.492;6.860;2023-03-12T09:24:26;15.57;;;7.77;;
3718;SDS011;1875;52.492;6.860;2023-03-12T09:26:54;15.33;;;7.13;;
3718;SDS011;1875;52.492;6.860;2023-03-12T09:29:22;10.50;;;7.37;;
3718;SDS011;1875;52.492;6.860;2023-03-12T09:31:50;16.63;;;8.07;;
3718;SDS011;1875;52.492;6.860;2023-03-12T09:34:19;12.27;;;7.33;;
3718;SDS011;1875;52.492;6.860;2023-03-12T09:36:46;10.17;;;6.93;;
3718;SDS011;1875;52.492;6.860;2023-03-12T09:39:15;15.23;;;9.40;;
3718;SDS011;1875;52.492;6.860;2023-03-12T09:41:43;84.90;;;46.23;;
3718;SDS011;1875;52.492;6.860;2023-03-12T09:44:15;98.93;;;66.60;;
3718;SDS011;1875;52.492;6.860;2023-03-12T09:46:47;25.77;;;20.33;;
3718;SDS011;1875;52.492;6.860;2023-03-12T09:49:17;17.93;;;10.20;;
3718;SDS011;1875;52.492;6.860;2023-03-12T09:51:48;15.57;;;9.13;;
3718;SDS011;1875;52.492;6.860;2023-03-12T09:54:21;15.47;;;10.43;;
3718;SDS011;1875;52.492;6.860;2023-03-12T09:56:51;28.30;;;16.30;;
3718;SDS011;1875;52.492;6.860;2023-03-12T09:59:21;24.70;;;13.97;;
3718;SDS011;1875;52.492;6.860;2023-03-12T10:01:50;14.30;;;10.53;;
3718;SDS011;1875;52.492;6.860;2023-03-12T10:04:24;19.63;;;11.03;;
3718;SDS011;1875;52.492;6.860;2023-03-12T10:07:11;20.40;;;12.20;;
3718;SDS011;1875;52.492;6.860;2023-03-12T10:09:47;17.67;;;11.77;;
3718;SDS011;1875;52.492;6.860;2023-03-12T10:12:33;18.70;;;13.87;;
3718;SDS011;1875;52.492;6.860;2023-03-12T10:15:13;16.17;;;12.93;;
3718;SDS011;1875;52.492;6.860;2023-03-12T10:17:47;20.17;;;13.17;;
3718;SDS011;1875;52.492;6.860;2023-03-12T10:20:31;19.77;;;13.77;;
3718;SDS011;1875;52.492;6.860;2023-03-12T10:23:09;17.67;;;13.13;;
3718;SDS011;1875;52.492;6.860;2023-03-12T10:25:41;19.47;;;13.43;;
3718;SDS011;1875;52.492;6.860;2023-03-12T10:28:13;25.37;;;14.93;;
3718;SDS011;1875;52.492;6.860;2023-03-12T10:30:45;20.00;;;13.87;;
3718;SDS011;1875;52.492;6.860;2023-03-12T10:33:17;24.50;;;16.73;;
3718;SDS011;1875;52.492;6.860;2023-03-12T10:35:47;17.77;;;14.17;;
3718;SDS011;1875;52.492;6.860;2023-03-12T10:38:17;20.47;;;15.07;;
3718;SDS011;1875;52.492;6.860;2023-03-12T10:40:48;21.30;;;15.13;;
3718;SDS011;1875;52.492;6.860;2023-03-12T10:43:16;18.93;;;14.83;;
3718;SDS011;1875;52.492;6.860;2023-03-12T10:45:45;26.27;;;16.00;;
3718;SDS011;1875;52.492;6.860;2023-03-12T10:48:17;21.47;;;15.83;;
3718;SDS011;1875;52.492;6.860;2023-03-12T10:51:00;23.13;;;15.23;;
3718;SDS011;1875;52.492;6.860;2023-03-12T10:53:30;19.50;;;14.60;;
3718;SDS011;1875;52.492;6.860;2023-03-12T10:56:00;20.43;;;16.67;;
3718;SDS011;1875;52.492;6.860;2023-03-12T10:58:31;20.90;;;13.83;;
3718;SDS011;1875;52.492;6.860;2023-03-12T11:01:02;19.00;;;15.53;;
3718;SDS011;1875;52.492;6.860;2023-03-12T11:03:31;16.47;;;14.07;;
3718;SDS011;1875;52.492;6.860;2023-03-12T11:06:01;18.03;;;13.03;;
3718;SDS011;1875;52.492;6.860;2023-03-12T11:08:30;16.47;;;13.83;;
3718;SDS011;1875;52.492;6.860;2023-03-12T11:10:59;20.90;;;13.97;;
3718;SDS011;1875;52.492;6.860;2023-03-12T11:13:29;16.43;;;12.90;;
3718;SDS011;1875;52.492;6.860;2023-03-12T11:15:57;21.73;;;15.33;;
3718;SDS011;1875;52.492;6.860;2023-03-12T11:18:27;18.47;;;13.93;;
3718;SDS011;1875;52.492;6.860;2023-03-12T11:21:10;17.50;;;12.80;;
3718;SDS011;1875;52.492;6.860;2023-03-12T11:23:40;21.07;;;12.00;;
3718;SDS011;1875;52.492;6.860;2023-03-12T11:26:11;18.40;;;13.83;;
3718;SDS011;1875;52.492;6.860;2023-03-12T11:28:42;21.07;;;12.87;;
3718;SDS011;1875;52.492;6.860;2023-03-12T11:31:14;17.73;;;12.80;;
3718;SDS011;1875;52.492;6.860;2023-03-12T11:33:46;22.47;;;12.67;;
3718;SDS011;1875;52.492;6.860;2023-03-12T11:36:21;17.00;;;13.60;;
3718;SDS011;1875;52.492;6.860;2023-03-12T11:38:59;17.77;;;12.97;;
3718;SDS011;1875;52.492;6.860;2023-03-12T11:41:40;22.63;;;13.37;;
3718;SDS011;1875;52.492;6.860;2023-03-12T11:44:16;23.60;;;15.20;;
3718;SDS011;1875;52.492;6.860;2023-03-12T11:46:50;22.17;;;14.67;;
3718;SDS011;1875;52.492;6.860;2023-03-12T11:49:26;29.97;;;17.37;;
3718;SDS011;1875;52.492;6.860;2023-03-12T11:52:02;24.93;;;18.17;;
3718;SDS011;1875;52.492;6.860;2023-03-12T11:57:34;19.37;;;13.97;;
3718;SDS011;1875;52.492;6.860;2023-03-12T12:00:09;25.97;;;18.03;;
3718;SDS011;1875;52.492;6.860;2023-03-12T12:02:43;21.83;;;16.40;;
3718;SDS011;1875;52.492;6.860;2023-03-12T12:05:21;24.93;;;16.87;;
3718;SDS011;1875;52.492;6.860;2023-03-12T12:08:00;29.83;;;17.60;;
3718;SDS011;1875;52.492;6.860;2023-03-12T12:10:38;27.20;;;17.60;;
3718;SDS011;1875;52.492;6.860;2023-03-12T12:13:11;32.47;;;16.83;;
3718;SDS011;1875;52.492;6.860;2023-03-12T12:15:45;27.10;;;16.73;;
3718;SDS011;1875;52.492;6.860;2023-03-12T12:18:23;27.70;;;17.13;;
3718;SDS011;1875;52.492;6.860;2023-03-12T12:21:01;32.13;;;18.50;;
3718;SDS011;1875;52.492;6.860;2023-03-12T12:23:35;37.43;;;18.00;;
3718;SDS011;1875;52.492;6.860;2023-03-12T12:26:08;27.53;;;18.27;;
3718;SDS011;1875;52.492;6.860;2023-03-12T12:28:44;29.93;;;17.00;;
3718;SDS011;1875;52.492;6.860;2023-03-12T12:31:36;31.50;;;19.73;;
3718;SDS011;1875;52.492;6.860;2023-03-12T12:34:16;28.00;;;18.53;;
3718;SDS011;1875;52.492;6.860;2023-03-12T12:37:13;31.70;;;18.40;;
3718;SDS011;1875;52.492;6.860;2023-03-12T12:39:46;37.57;;;21.07;;
3718;SDS011;1875;52.492;6.860;2023-03-12T12:42:17;32.27;;;20.73;;
3718;SDS011;1875;52.492;6.860;2023-03-12T12:44:48;39.37;;;23.07;;
3718;SDS011;1875;52.492;6.860;2023-03-12T12:47:18;37.10;;;21.40;;
3718;SDS011;1875;52.492;6.860;2023-03-12T12:49:52;44.60;;;23.33;;
3718;SDS011;1875;52.492;6.860;2023-03-12T12:52:22;44.40;;;24.93;;
3718;SDS011;1875;52.492;6.860;2023-03-12T12:54:54;41.70;;;23.53;;
3718;SDS011;1875;52.492;6.860;2023-03-12T12:57:26;44.90;;;23.87;;
3718;SDS011;1875;52.492;6.860;2023-03-12T13:00:02;37.40;;;24.10;;
3718;SDS011;1875;52.492;6.860;2023-03-12T13:02:40;43.93;;;25.30;;
3718;SDS011;1875;52.492;6.860;2023-03-12T13:05:19;50.53;;;26.27;;
3718;SDS011;1875;52.492;6.860;2023-03-12T13:07:48;55.30;;;28.57;;
3718;SDS011;1875;52.492;6.860;2023-03-12T13:13:23;55.03;;;28.77;;
3718;SDS011;1875;52.492;6.860;2023-03-12T13:15:58;58.17;;;28.33;;
3718;SDS011;1875;52.492;6.860;2023-03-12T13:18:54;55.77;;;29.80;;
3718;SDS011;1875;52.492;6.860;2023-03-12T13:21:23;67.30;;;30.63;;
3718;SDS011;1875;52.492;6.860;2023-03-12T13:23:54;57.97;;;28.97;;
3718;SDS011;1875;52.492;6.860;2023-03-12T13:26:28;65.10;;;31.70;;
3718;SDS011;1875;52.492;6.860;2023-03-12T13:29:00;65.37;;;30.67;;
3718;SDS011;1875;52.492;6.860;2023-03-12T13:31:41;66.83;;;33.10;;
3718;SDS011;1875;52.492;6.860;2023-03-12T13:34:28;74.27;;;30.17;;
3718;SDS011;1875;52.492;6.860;2023-03-12T13:43:41;75.23;;;31.43;;
3718;SDS011;1875;52.492;6.860;2023-03-12T13:49:03;73.67;;;35.10;;
3718;SDS011;1875;52.492;6.860;2023-03-12T13:51:41;75.97;;;35.27;;
3718;SDS011;1875;52.492;6.860;2023-03-12T13:54:12;82.83;;;35.10;;
3718;SDS011;1875;52.492;6.860;2023-03-12T13:56:45;76.53;;;32.53;;
3718;SDS011;1875;52.492;6.860;2023-03-12T13:59:23;77.93;;;33.97;;
3718;SDS011;1875;52.492;6.860;2023-03-12T14:01:53;78.20;;;30.33;;
3718;SDS011;1875;52.492;6.860;2023-03-12T14:04:23;78.43;;;31.73;;
3718;SDS011;1875;52.492;6.860;2023-03-12T14:06:59;71.33;;;29.50;;
3718;SDS011;1875;52.492;6.860;2023-03-12T14:09:35;66.97;;;31.13;;
3718;SDS011;1875;52.492;6.860;2023-03-12T14:12:08;76.97;;;29.50;;
3718;SDS011;1875;52.492;6.860;2023-03-12T14:17:30;70.20;;;29.27;;
3718;SDS011;1875;52.492;6.860;2023-03-12T14:19:59;67.73;;;27.57;;
3718;SDS011;1875;52.492;6.860;2023-03-12T14:22:28;61.97;;;27.23;;
3718;SDS011;1875;52.492;6.860;2023-03-12T14:24:58;68.10;;;27.50;;
3718;SDS011;1875;52.492;6.860;2023-03-12T14:27:30;63.93;;;25.73;;
3718;SDS011;1875;52.492;6.860;2023-03-12T14:30:03;55.30;;;26.43;;
3718;SDS011;1875;52.492;6.860;2023-03-12T14:32:37;60.37;;;25.57;;
3718;SDS011;1875;52.492;6.860;2023-03-12T14:35:08;59.63;;;24.10;;
3718;SDS011;1875;52.492;6.860;2023-03-12T14:37:43;61.07;;;24.10;;
3718;SDS011;1875;52.492;6.860;2023-03-12T14:40:18;51.50;;;23.00;;
3718;SDS011;1875;52.492;6.860;2023-03-12T14:42:48;62.13;;;24.53;;
3718;SDS011;1875;52.492;6.860;2023-03-12T14:45:17;51.73;;;22.07;;
3718;SDS011;1875;52.492;6.860;2023-03-12T14:47:46;50.30;;;20.63;;
3718;SDS011;1875;52.492;6.860;2023-03-12T14:50:16;53.60;;;20.30;;
3718;SDS011;1875;52.492;6.860;2023-03-12T14:52:44;46.13;;;19.73;;
3718;SDS011;1875;52.492;6.860;2023-03-12T14:55:13;52.47;;;19.70;;
3718;SDS011;1875;52.492;6.860;2023-03-12T14:57:43;38.40;;;19.20;;
3718;SDS011;1875;52.492;6.860;2023-03-12T15:00:20;37.97;;;17.93;;
3718;SDS011;1875;52.492;6.860;2023-03-12T15:02:50;34.00;;;17.90;;
3718;SDS011;1875;52.492;6.860;2023-03-12T15:05:19;32.47;;;16.40;;
3718;SDS011;1875;52.492;6.860;2023-03-12T15:07:48;38.13;;;16.03;;
3718;SDS011;1875;52.492;6.860;2023-03-12T15:10:19;37.50;;;16.80;;
3718;SDS011;1875;52.492;6.860;2023-03-12T15:12:49;41.83;;;15.77;;
3718;SDS011;1875;52.492;6.860;2023-03-12T15:18:07;40.17;;;17.13;;
3718;SDS011;1875;52.492;6.860;2023-03-12T15:20:38;34.47;;;16.43;;
3718;SDS011;1875;52.492;6.860;2023-03-12T15:23:07;48.90;;;17.60;;
3718;SDS011;1875;52.492;6.860;2023-03-12T15:25:36;33.67;;;16.37;;
3718;SDS011;1875;52.492;6.860;2023-03-12T15:28:05;68.73;;;36.07;;
3718;SDS011;1875;52.492;6.860;2023-03-12T15:30:35;42.57;;;16.60;;
3718;SDS011;1875;52.492;6.860;2023-03-12T15:33:06;41.50;;;16.40;;
3718;SDS011;1875;52.492;6.860;2023-03-12T15:35:36;39.57;;;15.83;;
3718;SDS011;1875;52.492;6.860;2023-03-12T15:38:11;42.83;;;17.40;;
3718;SDS011;1875;52.492;6.860;2023-03-12T15:40:40;44.23;;;16.53;;